createdAt,value
2023-01-04T00:00:43.933Z,0.60
2023-01-04T00:03:29.815Z,0.93
2023-01-04T00:06:19.427Z,0.93
2023-01-04T00:09:12.046Z,1.15
2023-01-04T00:11:57.743Z,0.80
2023-01-04T00:14:45.576Z,1.00
2023-01-04T00:17:31.071Z,1.20
2023-01-04T00:20:16.677Z,1.45
2023-01-04T00:23:02.285Z,0.70
2023-01-04T00:25:47.587Z,0.90
2023-01-04T00:28:33.061Z,0.93
2023-01-04T00:31:18.585Z,0.68
2023-01-04T00:34:06.285Z,0.45
2023-01-04T00:36:51.933Z,0.90
2023-01-04T00:39:37.347Z,1.45
2023-01-04T00:42:22.987Z,0.73
2023-01-04T00:45:08.717Z,0.73
2023-01-04T00:47:54.432Z,1.00
2023-01-04T00:50:39.726Z,0.93
2023-01-04T00:53:25.748Z,0.63
2023-01-04T00:56:11.413Z,0.90
2023-01-04T00:59:00.277Z,1.25
2023-01-04T01:01:46.668Z,1.23
2023-01-04T01:04:32.603Z,1.00
2023-01-04T01:07:18.378Z,1.23
2023-01-04T01:10:04.377Z,1.23
2023-01-04T01:12:49.806Z,0.90
2023-01-04T01:15:35.398Z,0.40
2023-01-04T01:18:21.212Z,0.90
2023-01-04T01:21:23.779Z,0.90
2023-01-04T01:24:17.811Z,1.05
2023-01-04T01:27:03.455Z,1.08
2023-01-04T01:29:48.893Z,0.75
2023-01-04T01:32:34.315Z,0.60
2023-01-04T01:35:19.686Z,0.70
2023-01-04T01:38:05.091Z,0.70
2023-01-04T01:40:50.493Z,0.50
2023-01-04T01:44:07.182Z,1.23
2023-01-04T01:46:54.838Z,1.10
2023-01-04T01:49:42.884Z,1.15
2023-01-04T01:52:35.307Z,0.93
2023-01-04T01:55:21.368Z,0.50
2023-01-04T01:58:09.583Z,1.13
2023-01-04T02:00:55.105Z,0.93
2023-01-04T02:03:43.406Z,0.60
2023-01-04T02:06:41.540Z,0.68
2023-01-04T02:09:27.427Z,1.50
2023-01-04T02:12:14.312Z,0.70
2023-01-04T02:15:00.011Z,0.50
2023-01-04T02:17:55.891Z,0.73
2023-01-04T02:20:56.683Z,0.65
2023-01-04T02:25:00.087Z,0.60
2023-01-04T02:31:58.817Z,0.77
2023-01-04T02:35:32.697Z,0.90
2023-01-04T02:39:13.833Z,0.50
2023-01-04T02:43:06.785Z,1.15
2023-01-04T02:46:10.331Z,0.70
2023-01-04T02:49:00.937Z,0.40
2023-01-04T02:51:46.403Z,1.27
2023-01-04T02:54:32.964Z,0.60
2023-01-04T02:57:45.872Z,0.50
2023-01-04T03:01:29.059Z,0.85
2023-01-04T03:04:56.736Z,0.50
2023-01-04T03:08:10.868Z,0.90
2023-01-04T03:11:08.249Z,0.73
2023-01-04T03:14:00.669Z,0.57
2023-01-04T03:16:47.570Z,0.45
2023-01-04T03:19:37.148Z,0.80
2023-01-04T03:22:40.967Z,0.90
2023-01-04T03:25:36.664Z,0.80
2023-01-04T03:28:26.460Z,0.63
2023-01-04T03:31:43.145Z,1.00
2023-01-04T03:34:29.055Z,0.88
2023-01-04T03:37:48.815Z,0.65
2023-01-04T03:40:38.276Z,0.68
2023-01-04T03:43:37.728Z,0.80
2023-01-04T03:46:47.241Z,0.90
2023-01-04T03:49:43.901Z,1.25
2023-01-04T03:52:32.233Z,1.05
2023-01-04T03:55:19.020Z,0.93
2023-01-04T03:58:04.506Z,1.10
2023-01-04T04:00:50.090Z,1.00
2023-01-04T04:03:35.455Z,1.48
2023-01-04T04:06:20.886Z,0.85
2023-01-04T04:09:06.183Z,1.13
2023-01-04T04:11:52.596Z,0.93
2023-01-04T04:14:38.133Z,0.70
2023-01-04T04:17:23.396Z,1.58
2023-01-04T04:20:10.317Z,1.20
2023-01-04T04:22:55.600Z,1.40
2023-01-04T04:25:40.970Z,1.70
2023-01-04T04:28:26.439Z,1.27
2023-01-04T04:31:12.092Z,1.75
2023-01-04T04:33:57.855Z,0.93
2023-01-04T04:36:43.288Z,1.63
2023-01-04T04:39:28.764Z,1.15
2023-01-04T04:42:14.271Z,0.88
2023-01-04T04:44:59.650Z,1.17
2023-01-04T04:47:45.241Z,1.10
2023-01-04T04:50:30.448Z,1.10
2023-01-04T04:53:15.914Z,1.70
2023-01-04T04:56:01.461Z,1.23
2023-01-04T04:58:48.242Z,1.30
2023-01-04T05:01:34.410Z,1.02
2023-01-04T05:04:20.016Z,1.00
2023-01-04T05:07:12.073Z,0.43
2023-01-04T05:09:58.109Z,0.77
2023-01-04T05:12:44.040Z,1.20
2023-01-04T05:15:37.835Z,1.10
2023-01-04T05:18:23.662Z,1.25
2023-01-04T05:21:08.954Z,0.90
2023-01-04T05:23:54.503Z,1.50
2023-01-04T05:26:40.468Z,0.95
2023-01-04T05:29:25.954Z,1.17
2023-01-04T05:32:11.610Z,0.95
2023-01-04T05:34:57.149Z,1.05
2023-01-04T05:37:43.161Z,0.98
2023-01-04T05:40:29.013Z,1.15
2023-01-04T05:43:16.715Z,1.40
2023-01-04T05:46:02.552Z,1.50
2023-01-04T05:48:48.276Z,1.00
2023-01-04T05:51:33.620Z,1.13
2023-01-04T05:54:21.540Z,0.88
2023-01-04T05:57:07.708Z,1.50
2023-01-04T05:59:53.497Z,1.15
2023-01-04T06:02:38.986Z,0.88
2023-01-04T06:05:26.010Z,1.40
2023-01-04T06:08:11.501Z,2.08
2023-01-04T06:10:56.789Z,0.90
2023-01-04T06:13:42.762Z,1.70
2023-01-04T06:16:28.347Z,0.50
2023-01-04T06:19:14.163Z,1.15
2023-01-04T06:21:59.926Z,1.40
2023-01-04T06:24:45.572Z,0.90
2023-01-04T06:27:31.021Z,1.95
2023-01-04T06:30:16.515Z,1.27
2023-01-04T06:33:01.978Z,1.35
2023-01-04T06:35:55.581Z,1.90
2023-01-04T06:38:41.100Z,1.88
2023-01-04T06:41:27.119Z,1.38
2023-01-04T06:44:12.858Z,1.48
2023-01-04T06:46:58.331Z,1.15
2023-01-04T06:49:43.815Z,1.50
2023-01-04T06:52:29.149Z,2.28
2023-01-04T06:55:14.849Z,2.00
2023-01-04T06:58:03.503Z,1.05
2023-01-04T07:00:56.126Z,1.77
2023-01-04T07:03:41.731Z,1.48
2023-01-04T07:06:27.514Z,1.10
2023-01-04T07:09:13.224Z,2.08
2023-01-04T07:11:58.921Z,1.20
2023-01-04T07:14:44.791Z,0.90
2023-01-04T07:17:30.324Z,1.08
2023-01-04T07:20:17.043Z,1.50
2023-01-04T07:23:02.523Z,1.02
2023-01-04T07:25:47.954Z,0.90
2023-01-04T07:28:33.198Z,2.08
2023-01-04T07:31:18.853Z,1.02
2023-01-04T07:34:04.518Z,1.40
2023-01-04T07:36:50.868Z,2.60
2023-01-04T07:39:36.372Z,1.00
2023-01-04T07:42:21.856Z,1.65
2023-01-04T07:45:08.659Z,1.65
2023-01-04T07:47:54.529Z,1.23
2023-01-04T07:50:39.924Z,1.90
2023-01-04T07:53:25.453Z,1.92
2023-01-04T07:56:15.258Z,2.28
2023-01-04T07:59:09.550Z,1.15
2023-01-04T08:01:55.108Z,2.10
2023-01-04T08:04:41.164Z,2.17
2023-01-04T08:07:27.334Z,1.88
2023-01-04T08:10:12.771Z,2.30
2023-01-04T08:13:01.204Z,1.40
2023-01-04T08:15:53.802Z,1.13
2023-01-04T08:18:39.431Z,0.88
2023-01-04T08:21:25.777Z,1.20
2023-01-04T08:24:18.625Z,2.10
2023-01-04T08:27:04.194Z,2.38
2023-01-04T08:29:49.845Z,1.15
2023-01-04T08:32:35.339Z,1.02
2023-01-04T08:35:21.963Z,1.30
2023-01-04T08:38:47.247Z,1.38
2023-01-04T08:41:39.221Z,1.15
2023-01-04T08:44:22.832Z,0.85
2023-01-04T08:47:08.418Z,1.70
2023-01-04T08:49:53.771Z,1.00
2023-01-04T08:52:39.175Z,1.25
2023-01-04T08:55:24.664Z,1.85
2023-01-04T08:58:19.277Z,1.40
2023-01-04T09:01:10.912Z,0.85
2023-01-04T09:06:43.117Z,1.20
2023-01-04T09:09:28.950Z,1.02
2023-01-04T09:12:14.629Z,1.40
2023-01-04T09:15:00.144Z,0.90
2023-01-04T09:18:20.693Z,0.80
2023-01-04T09:20:52.798Z,0.98
2023-01-04T09:23:39.742Z,0.40
2023-01-04T09:26:25.956Z,1.05
2023-01-04T09:29:11.957Z,0.60
2023-01-04T09:31:57.359Z,1.30
2023-01-04T09:34:43.490Z,0.88
2023-01-04T09:37:29.235Z,1.10
2023-01-04T09:40:53.688Z,0.73
2023-01-04T09:43:54.763Z,1.25
2023-01-04T09:46:49.862Z,0.88
2023-01-04T09:49:57.900Z,0.77
2023-01-04T09:53:20.121Z,0.95
2023-01-04T09:56:16.883Z,1.30
2023-01-04T09:59:11.141Z,1.25
2023-01-04T10:02:09.224Z,0.70
2023-01-04T10:04:55.199Z,0.60
2023-01-04T10:07:40.580Z,0.35
2023-01-04T10:11:13.249Z,0.75
2023-01-04T10:14:35.223Z,0.20
2023-01-04T10:21:45.876Z,0.30
2023-01-04T10:24:59.299Z,0.47
2023-01-04T10:28:16.354Z,1.00
2023-01-04T10:31:40.605Z,0.50
2023-01-04T10:34:46.467Z,0.30
2023-01-04T10:37:37.921Z,0.50
2023-01-04T10:40:25.409Z,0.30
2023-01-04T10:43:28.809Z,0.50
2023-01-04T10:46:34.158Z,0.55
2023-01-04T10:49:59.179Z,0.43
2023-01-04T10:53:13.314Z,0.90
2023-01-04T10:56:39.213Z,0.80
2023-01-04T10:59:44.411Z,0.80
2023-01-04T11:03:06.526Z,0.50
2023-01-04T11:06:20.519Z,1.20
2023-01-04T11:09:26.649Z,0.60
2023-01-04T11:12:16.342Z,0.57
2023-01-04T11:15:02.231Z,0.50
2023-01-04T11:17:49.392Z,0.68
2023-01-04T11:20:38.288Z,0.60
2023-01-04T11:23:24.344Z,0.32
2023-01-04T11:26:22.452Z,0.45
2023-01-04T11:29:46.129Z,0.40
2023-01-04T11:32:42.566Z,0.40
2023-01-04T11:35:55.454Z,0.38
2023-01-04T11:38:56.042Z,0.43
2023-01-04T11:42:03.876Z,0.20
2023-01-04T11:44:59.390Z,0.60
2023-01-04T11:47:53.570Z,0.88
2023-01-04T11:50:47.557Z,0.20
2023-01-04T11:53:37.562Z,0.40
2023-01-04T11:56:25.882Z,0.30
2023-01-04T11:59:24.837Z,0.28
2023-01-04T12:05:37.573Z,0.30
2023-01-04T12:08:37.348Z,0.20
2023-01-04T12:11:32.087Z,0.30
2023-01-04T12:14:31.447Z,0.35
2023-01-04T12:17:24.070Z,0.30
2023-01-04T12:20:20.768Z,0.35
2023-01-04T12:23:06.361Z,0.50
2023-01-04T12:25:52.990Z,0.40
2023-01-04T12:28:49.952Z,0.35
2023-01-04T12:31:35.494Z,0.60
2023-01-04T12:34:23.760Z,0.40
2023-01-04T12:37:11.669Z,0.60
2023-01-04T12:39:57.248Z,0.50
2023-01-04T12:43:24.441Z,0.30
2023-01-04T12:46:41.919Z,0.57
2023-01-04T12:49:27.917Z,0.30
2023-01-04T12:52:30.539Z,0.28
2023-01-04T12:55:33.589Z,0.20
2023-01-04T13:01:36.754Z,0.40
2023-01-04T13:04:41.486Z,0.30
2023-01-04T13:07:39.906Z,0.30
2023-01-04T13:10:40.624Z,0.43
2023-01-04T13:13:38.689Z,0.43
2023-01-04T13:17:06.221Z,0.50
2023-01-04T13:19:52.305Z,0.20
2023-01-04T13:22:38.367Z,0.20
2023-01-04T13:25:25.196Z,0.30
2023-01-04T13:28:18.988Z,0.38
2023-01-04T13:31:04.510Z,0.40
2023-01-04T13:33:50.841Z,0.20
2023-01-04T13:36:36.452Z,0.20
2023-01-04T13:39:22.954Z,0.30
2023-01-04T13:42:32.537Z,0.20
2023-01-04T13:45:51.650Z,0.30
2023-01-04T13:48:41.935Z,0.20
2023-01-04T13:51:36.217Z,0.38
2023-01-04T13:54:26.827Z,0.52
2023-01-04T13:57:18.744Z,0.50
2023-01-04T14:00:07.087Z,1.30
2023-01-04T14:03:22.216Z,1.17
2023-01-04T14:06:19.669Z,1.17
2023-01-04T14:09:10.080Z,1.20
2023-01-04T14:15:25.172Z,0.50
2023-01-04T14:18:30.463Z,1.05
2023-01-04T14:21:18.191Z,0.55
2023-01-04T14:24:03.631Z,0.88
2023-01-04T14:26:49.048Z,0.50
2023-01-04T14:29:35.075Z,0.45
2023-01-04T14:32:20.629Z,0.73
2023-01-04T14:35:13.978Z,1.00
2023-01-04T14:38:18.884Z,0.68
2023-01-04T14:41:30.159Z,0.88
2023-01-04T14:44:22.397Z,0.30
2023-01-04T14:47:11.475Z,0.32
2023-01-04T14:49:56.791Z,0.55
2023-01-04T14:52:42.072Z,0.40
2023-01-04T14:55:27.472Z,0.88
2023-01-04T14:58:12.890Z,0.68
2023-01-04T15:00:58.489Z,0.50
2023-01-04T15:03:43.927Z,1.02
2023-01-04T15:06:29.907Z,0.73
2023-01-04T15:09:15.842Z,0.65
2023-01-04T15:12:01.450Z,0.75
2023-01-04T15:14:46.973Z,1.63
2023-01-04T15:17:32.443Z,1.42
2023-01-04T15:20:18.083Z,1.42
2023-01-04T15:23:03.764Z,1.50
2023-01-04T15:25:48.984Z,1.17
2023-01-04T15:28:34.680Z,1.35
2023-01-04T15:31:27.682Z,1.67
2023-01-04T15:34:15.982Z,1.65
2023-01-04T15:37:01.524Z,1.70
2023-01-04T15:39:47.712Z,2.00
2023-01-04T15:42:32.885Z,1.67
2023-01-04T15:45:18.583Z,1.88
2023-01-04T15:48:07.521Z,3.03
2023-01-04T15:50:52.734Z,2.72
2023-01-04T15:53:39.324Z,2.53
2023-01-04T15:56:26.001Z,3.60
2023-01-04T15:59:11.593Z,2.85
2023-01-04T16:01:57.518Z,2.78
2023-01-04T16:04:44.549Z,2.25
2023-01-04T16:07:34.558Z,4.03
2023-01-04T16:10:22.117Z,7.32
2023-01-04T16:13:09.952Z,4.57
2023-01-04T16:16:01.119Z,5.07
2023-01-04T16:18:54.328Z,4.13
2023-01-04T16:21:40.167Z,3.22
2023-01-04T16:27:35.397Z,4.78
2023-01-04T16:30:27.823Z,4.07
2023-01-04T16:33:14.965Z,4.15
2023-01-04T16:36:11.340Z,3.55
2023-01-04T16:38:57.413Z,5.18
2023-01-04T16:41:43.303Z,5.80
2023-01-04T16:44:36.320Z,8.48
2023-01-04T16:47:23.524Z,6.53
2023-01-04T16:50:11.955Z,5.60
2023-01-04T16:52:57.708Z,6.45
2023-01-04T16:55:45.909Z,3.88
2023-01-04T16:58:38.393Z,7.50
2023-01-04T17:01:34.489Z,10.43
2023-01-04T17:04:23.813Z,6.63
2023-01-04T17:07:09.681Z,8.25
2023-01-04T17:09:55.239Z,7.80
2023-01-04T17:12:49.224Z,7.65
2023-01-04T17:15:44.892Z,6.95
2023-01-04T17:18:31.937Z,10.48
2023-01-04T17:21:33.616Z,7.72
2023-01-04T17:24:20.261Z,6.55
2023-01-04T17:27:06.143Z,6.45
2023-01-04T17:29:51.839Z,5.32
2023-01-04T17:32:37.120Z,6.82
2023-01-04T17:35:22.629Z,8.23
2023-01-04T17:38:08.200Z,8.48
2023-01-04T17:40:53.684Z,8.55
2023-01-04T17:43:41.368Z,5.45
2023-01-04T17:46:30.522Z,8.70
2023-01-04T17:49:27.756Z,9.38
2023-01-04T17:52:23.271Z,7.00
2023-01-04T17:55:15.234Z,6.43
2023-01-04T17:58:02.383Z,6.13
2023-01-04T18:00:50.258Z,3.65
2023-01-04T18:03:37.455Z,5.07
2023-01-04T18:06:35.818Z,4.82
2023-01-04T18:09:24.192Z,5.75
2023-01-04T18:12:12.757Z,8.43
2023-01-04T18:14:58.559Z,6.95
2023-01-04T18:17:43.982Z,8.20
2023-01-04T18:20:29.696Z,6.85
2023-01-04T18:23:25.278Z,6.50
2023-01-04T18:26:16.212Z,4.18
2023-01-04T18:29:01.709Z,4.22
2023-01-04T18:31:47.109Z,3.53
2023-01-04T18:34:42.349Z,2.72
2023-01-04T18:37:27.924Z,3.40
2023-01-04T18:40:13.633Z,4.03
2023-01-04T18:42:59.642Z,3.75
2023-01-04T18:45:45.539Z,8.02
2023-01-04T18:48:31.344Z,3.83
2023-01-04T18:51:16.928Z,7.20
2023-01-04T18:54:02.610Z,4.60
2023-01-04T18:56:48.367Z,3.25
2023-01-04T18:59:34.188Z,3.85
2023-01-04T19:02:21.092Z,2.10
2023-01-04T19:05:07.367Z,3.85
2023-01-04T19:07:54.362Z,4.22
2023-01-04T19:10:39.919Z,4.00
2023-01-04T19:13:25.344Z,2.83
2023-01-04T19:16:15.340Z,4.50
2023-01-04T19:19:01.474Z,4.55
2023-01-04T19:21:46.936Z,4.32
2023-01-04T19:24:32.309Z,3.60
2023-01-04T19:27:17.930Z,3.03
2023-01-04T19:30:04.816Z,3.35
2023-01-04T19:32:50.345Z,1.98
2023-01-04T19:35:40.844Z,3.13
2023-01-04T19:38:26.328Z,1.20
2023-01-04T19:41:29.290Z,3.92
2023-01-04T19:44:19.125Z,1.63
2023-01-04T19:47:04.598Z,1.33
2023-01-04T19:49:49.940Z,2.28
2023-01-04T19:52:36.926Z,1.83
2023-01-04T19:55:22.300Z,1.20
2023-01-04T19:58:08.388Z,3.38
2023-01-04T20:00:55.090Z,2.50
2023-01-04T20:03:41.266Z,2.05
2023-01-04T20:06:27.124Z,1.38
2023-01-04T20:09:12.943Z,1.00
2023-01-04T20:11:58.462Z,2.30
2023-01-04T20:14:44.115Z,1.17
2023-01-04T20:17:29.661Z,1.15
2023-01-04T20:20:15.532Z,1.92
2023-01-04T20:23:01.361Z,3.35
2023-01-04T20:25:51.000Z,1.20
2023-01-04T20:28:36.686Z,1.55
2023-01-04T20:31:22.228Z,1.02
2023-01-04T20:34:07.651Z,0.90
2023-01-04T20:36:53.364Z,1.13
2023-01-04T20:39:38.856Z,0.90
2023-01-04T20:42:24.613Z,1.02
2023-01-04T20:45:10.867Z,2.08
2023-01-04T20:47:56.403Z,0.82
2023-01-04T20:50:43.204Z,2.00
2023-01-04T20:53:28.908Z,0.85
2023-01-04T20:56:22.973Z,1.80
2023-01-04T20:59:08.332Z,1.15
2023-01-04T21:01:53.857Z,1.20
2023-01-04T21:04:39.736Z,1.92
2023-01-04T21:07:25.184Z,1.05
2023-01-04T21:10:10.572Z,1.20
2023-01-04T21:12:56.052Z,0.60
2023-01-04T21:15:42.003Z,0.82
2023-01-04T21:18:28.241Z,0.80
2023-01-04T21:21:17.738Z,1.00
2023-01-04T21:24:03.310Z,1.02
2023-01-04T21:26:48.851Z,2.33
2023-01-04T21:29:34.266Z,1.38
2023-01-04T21:32:19.954Z,1.48
2023-01-04T21:35:06.765Z,1.25
2023-01-04T21:37:52.655Z,1.00
2023-01-04T21:40:40.349Z,1.77
2023-01-04T21:43:40.855Z,0.60
2023-01-04T21:46:27.693Z,0.65
2023-01-04T21:49:15.980Z,0.95
2023-01-04T21:52:07.001Z,1.38
2023-01-04T21:54:52.659Z,1.52
2023-01-04T21:57:38.491Z,1.75
2023-01-04T22:00:24.054Z,1.45
2023-01-04T22:03:09.666Z,1.48
2023-01-04T22:06:02.049Z,1.65
2023-01-04T22:08:47.814Z,2.53
2023-01-04T22:11:33.197Z,2.60
2023-01-04T22:14:18.923Z,1.10
2023-01-04T22:17:04.630Z,2.40
2023-01-04T22:19:50.078Z,1.20
2023-01-04T22:22:35.675Z,2.20
2023-01-04T22:25:21.060Z,0.80
2023-01-04T22:28:06.492Z,1.50
2023-01-04T22:30:52.679Z,1.25
2023-01-04T22:33:39.082Z,2.50
2023-01-04T22:36:24.678Z,1.80
2023-01-04T22:39:10.402Z,2.40
2023-01-04T22:42:02.671Z,1.90
2023-01-04T22:44:48.013Z,1.23
2023-01-04T22:47:37.384Z,1.10
2023-01-04T22:53:37.661Z,1.48
2023-01-04T22:56:24.534Z,0.63
2023-01-04T22:59:09.960Z,1.02
2023-01-04T23:01:55.380Z,1.92
2023-01-04T23:04:40.892Z,1.08
2023-01-04T23:07:26.423Z,1.88
2023-01-04T23:10:12.123Z,1.80
2023-01-04T23:12:57.573Z,1.60
2023-01-04T23:15:42.862Z,2.35
2023-01-04T23:18:28.272Z,1.45
2023-01-04T23:21:15.182Z,1.90
2023-01-04T23:24:01.781Z,2.90
2023-01-04T23:26:47.526Z,1.35
2023-01-04T23:29:32.977Z,2.15
2023-01-04T23:32:18.578Z,1.75
2023-01-04T23:35:04.398Z,2.67
2023-01-04T23:37:49.897Z,2.83
2023-01-04T23:40:35.301Z,1.38
2023-01-04T23:43:21.291Z,2.88
2023-01-04T23:46:18.145Z,1.70
2023-01-04T23:49:04.140Z,2.25
2023-01-04T23:51:49.827Z,1.48
2023-01-04T23:54:35.718Z,1.70
2023-01-04T23:57:21.147Z,1.63
